Time;durP1;ratioP1;P1;durP2;ratioP2;P2;SDS_P1;SDS_P2;PMS_P1;PMS_P2;Temp;Humidity;BMP_temperature;BMP_pressure;BME280_temperature;BME280_humidity;BME280_pressure;Samples;Min_cycle;Max_cycle;Signal;HPM_P1;HPM_P2
2023/05/23 00:00:35;;;;;;;30.85;25.45;;;;;;;15.70;85.67;101752.56;5073434;28;20078;-65
2023/05/23 00:03:01;;;;;;;28.45;25.40;;;;;;;15.76;85.68;101750.28;5073086;28;20095;-65
2023/05/23 00:05:28;;;;;;;31.20;25.17;;;;;;;15.82;85.21;101747.19;5073414;28;20024;-65
2023/05/23 00:07:53;;;;;;;30.88;26.27;;;;;;;15.67;85.83;101751.81;5072349;28;20035;-65
2023/05/23 00:10:19;;;;;;;32.58;25.10;;;;;;;15.65;85.93;101744.81;5073149;28;20388;-65
2023/05/23 00:12:46;;;;;;;31.23;25.92;;;;;;;15.61;86.46;101759.41;5072981;28;20471;-65
2023/05/23 00:15:12;;;;;;;29.48;26.25;;;;;;;15.71;86.12;101752.47;5073137;28;20020;-65
2023/05/23 00:17:38;;;;;;;29.40;24.20;;;;;;;15.48;86.91;101762.06;5105620;28;20032;-65
2023/05/23 00:20:08;;;;;;;29.05;24.40;;;;;;;15.59;86.92;101758.66;5071885;28;20055;-65
2023/05/23 00:22:35;;;;;;;27.15;22.02;;;;;;;15.43;87.22;101766.88;5072226;28;20095;-65
2023/05/23 00:25:00;;;;;;;24.65;22.02;;;;;;;15.30;87.58;101774.06;5105314;28;20029;-65
2023/05/23 00:27:26;;;;;;;25.17;22.02;;;;;;;15.29;88.08;101765.16;5105454;28;20051;-65
2023/05/23 00:29:51;;;;;;;25.58;19.95;;;;;;;15.36;87.68;101766.47;5072565;28;20025;-65
2023/05/23 00:32:17;;;;;;;23.75;19.63;;;;;;;15.35;87.64;101763.88;5072564;28;20031;-65
2023/05/23 00:34:44;;;;;;;22.85;19.98;;;;;;;15.29;87.75;101775.00;5105342;28;20016;-65
2023/05/23 00:37:10;;;;;;;20.25;18.15;;;;;;;15.34;87.58;101776.41;5072006;28;20067;-65
2023/05/23 00:39:38;;;;;;;21.50;19.30;;;;;;;15.33;87.30;101773.88;5072633;28;20471;-65
2023/05/23 00:42:05;;;;;;;20.98;18.77;;;;;;;15.40;87.50;101781.34;5072412;28;20012;-65
2023/05/23 00:44:31;;;;;;;20.30;17.73;;;;;;;15.25;87.41;101765.47;5072454;28;20090;-65
2023/05/23 00:46:57;;;;;;;23.15;16.55;;;;;;;15.44;86.16;101771.28;5104623;28;20033;-65
2023/05/23 00:49:23;;;;;;;19.10;16.90;;;;;;;15.34;86.63;101768.38;5105091;28;20490;-65
2023/05/23 00:51:49;;;;;;;18.92;16.90;;;;;;;15.35;86.29;101771.91;5103443;28;20028;-65
2023/05/23 00:54:19;;;;;;;18.58;16.65;;;;;;;15.20;86.85;101772.00;5105109;28;20024;-65
2023/05/23 00:56:45;;;;;;;19.67;17.52;;;;;;;15.22;86.80;101774.56;5072217;28;20024;-65
2023/05/23 00:59:12;;;;;;;20.60;18.00;;;;;;;15.18;86.75;101775.75;5071146;28;20091;-65
2023/05/23 01:01:39;;;;;;;21.73;18.23;;;;;;;15.28;86.21;101786.72;5104883;28;20027;-65
2023/05/23 01:04:07;;;;;;;22.42;18.70;;;;;;;15.09;86.32;101784.41;5104832;28;20036;-65
2023/05/23 01:06:32;;;;;;;19.85;17.25;;;;;;;15.20;86.33;101787.22;5104079;28;20060;-65
2023/05/23 01:09:02;;;;;;;22.50;17.83;;;;;;;15.17;86.14;101787.44;5072092;28;20464;-65
2023/05/23 01:12:14;;;;;;;23.80;19.02;;;;;;;15.11;86.68;101795.88;5071931;28;20033;-65
2023/05/23 01:14:50;;;;;;;24.02;19.63;;;;;;;15.04;87.31;101791.91;5072207;28;20036;-65
2023/05/23 01:17:27;;;;;;;24.20;18.73;;;;;;;15.18;86.43;101795.38;5071907;28;20488;-65
2023/05/23 01:20:08;;;;;;;23.27;18.60;;;;;;;15.07;86.23;101794.38;5070519;28;20029;-65
2023/05/23 01:23:00;;;;;;;23.08;19.20;;;;;;;14.93;86.36;101804.19;5103837;28;20027;-65
2023/05/23 01:26:01;;;;;;;26.27;19.00;;;;;;;14.80;86.84;101799.75;5072427;28;20059;-65
2023/05/23 01:28:36;;;;;;;24.58;18.38;;;;;;;14.69;86.51;101793.25;5071777;28;20377;-65
2023/05/23 01:31:05;;;;;;;24.02;16.63;;;;;;;14.69;86.44;101795.09;5071673;28;20043;-65
2023/05/23 01:33:32;;;;;;;22.50;15.85;;;;;;;14.73;85.83;101796.59;5071869;28;20024;-65
2023/05/23 01:36:01;;;;;;;23.77;17.13;;;;;;;14.67;85.70;101807.69;5104045;28;20116;-65
2023/05/23 01:38:26;;;;;;;21.75;16.13;;;;;;;14.68;85.81;101812.97;5069804;28;20384;-65
2023/05/23 01:40:54;;;;;;;19.85;15.43;;;;;;;14.92;85.19;101806.97;5071572;28;20024;-65
2023/05/23 01:43:21;;;;;;;23.65;17.83;;;;;;;14.77;85.43;101811.50;5071647;28;20150;-65
2023/05/23 01:45:47;;;;;;;22.45;17.08;;;;;;;14.79;85.33;101806.91;5104392;28;20021;-65
2023/05/23 01:48:15;;;;;;;28.00;18.80;;;;;;;14.79;86.04;101808.72;5071424;28;20020;-65
2023/05/23 01:50:44;;;;;;;27.75;18.60;;;;;;;14.74;86.28;101809.91;5071559;28;20111;-65
2023/05/23 01:53:11;;;;;;;26.73;19.23;;;;;;;14.64;86.85;101819.47;5071306;28;20059;-65
2023/05/23 01:55:39;;;;;;;32.92;19.95;;;;;;;14.69;87.10;101811.16;5071693;28;20442;-65
2023/05/23 01:58:05;;;;;;;30.13;20.63;;;;;;;14.59;87.57;101812.69;5071445;28;20028;-65
2023/05/23 02:00:30;;;;;;;34.03;20.88;;;;;;;14.65;87.45;101805.16;5071634;28;20021;-65
2023/05/23 02:02:58;;;;;;;26.40;20.38;;;;;;;14.74;87.18;101814.41;5073130;28;20032;-65
2023/05/23 02:05:24;;;;;;;29.98;21.00;;;;;;;14.70;87.46;101813.72;5075505;28;20491;-65
2023/05/23 02:07:50;;;;;;;31.60;21.35;;;;;;;14.80;87.51;101823.84;5074811;28;20020;-65
2023/05/23 02:10:15;;;;;;;30.25;20.92;;;;;;;14.83;87.03;101816.47;5075501;28;20020;-65
2023/05/23 02:12:40;;;;;;;33.67;21.67;;;;;;;14.59;86.97;101797.50;5107946;28;20048;-65
2023/05/23 02:15:07;;;;;;;28.08;19.40;;;;;;;14.87;86.79;101836.72;5107643;28;20505;-65
2023/05/23 02:17:32;;;;;;;29.23;21.45;;;;;;;14.63;87.66;101816.91;5107613;28;20411;-65
2023/05/23 02:19:58;;;;;;;38.35;22.08;;;;;;;14.67;87.81;101824.63;5074731;28;20032;-65
2023/05/23 02:22:26;;;;;;;34.53;21.77;;;;;;;14.65;88.27;101823.03;5074517;28;20031;-65
2023/05/23 02:24:51;;;;;;;38.22;22.23;;;;;;;14.62;88.67;101837.47;5107735;28;20062;-65
2023/05/23 02:27:18;;;;;;;31.08;21.00;;;;;;;14.56;89.44;101842.34;5074938;28;20059;-65
2023/05/23 02:29:43;;;;;;;32.03;20.02;;;;;;;14.70;88.78;101836.97;5107659;28;20060;-65
2023/05/23 02:32:09;;;;;;;32.33;20.70;;;;;;;14.65;88.88;101842.63;5074919;28;20064;-65
2023/05/23 02:34:34;;;;;;;29.20;20.23;;;;;;;14.58;89.48;101846.63;5074882;28;20020;-65
2023/05/23 02:37:02;;;;;;;34.40;20.05;;;;;;;14.54;89.92;101847.81;5074245;28;20033;-65
2023/05/23 02:39:27;;;;;;;28.95;19.15;;;;;;;14.74;89.59;101839.34;5074917;28;20025;-65
2023/05/23 02:41:52;;;;;;;30.88;19.15;;;;;;;14.70;89.42;101827.09;5107238;28;20030;-65
2023/05/23 02:44:18;;;;;;;26.45;18.30;;;;;;;14.81;89.39;101839.81;5107375;28;20048;-65
2023/05/23 02:46:44;;;;;;;29.35;19.40;;;;;;;14.74;89.25;101842.03;5074505;28;20051;-65
2023/05/23 02:49:10;;;;;;;32.08;18.42;;;;;;;14.67;88.62;101840.69;5074669;28;20388;-65
2023/05/23 02:51:35;;;;;;;24.13;17.20;;;;;;;14.63;88.66;101841.00;5073905;28;20021;-65
2023/05/23 02:54:00;;;;;;;26.42;17.13;;;;;;;14.54;88.67;101831.75;5074596;28;20028;-65
2023/05/23 02:56:28;;;;;;;20.83;16.10;;;;;;;14.67;88.47;101843.38;5074629;28;20071;-65
2023/05/23 02:58:54;;;;;;;19.17;15.02;;;;;;;14.50;88.10;101832.84;5107145;28;20120;-65
2023/05/23 03:01:22;;;;;;;25.17;15.63;;;;;;;14.51;88.51;101838.16;5107040;28;20487;-65
2023/05/23 03:03:47;;;;;;;21.38;14.25;;;;;;;14.35;87.84;101807.91;5074283;28;20545;-65
2023/05/23 03:06:15;;;;;;;20.67;12.68;;;;;;;14.50;87.44;101830.16;5106895;28;20054;-65
2023/05/23 03:08:42;;;;;;;14.40;11.85;;;;;;;14.66;87.00;101836.31;5106593;28;20032;-65
2023/05/23 03:11:08;;;;;;;15.52;11.52;;;;;;;14.69;86.62;101849.50;5073049;28;20023;-65
2023/05/23 03:13:36;;;;;;;16.75;11.15;;;;;;;14.60;86.59;101841.19;5073854;28;20028;-65
2023/05/23 03:16:02;;;;;;;13.02;11.00;;;;;;;14.64;86.20;101843.56;5073889;28;20630;-65
2023/05/23 03:18:30;;;;;;;12.73;9.90;;;;;;;14.49;87.31;101842.69;5073933;28;20024;-65
2023/05/23 03:20:58;;;;;;;12.23;10.87;;;;;;;14.44;86.97;101844.81;5072557;28;20074;-64
2023/05/23 03:23:24;;;;;;;11.60;9.82;;;;;;;14.41;87.07;101853.06;5073695;28;20115;-65
2023/05/23 03:25:49;;;;;;;12.82;10.00;;;;;;;14.52;86.74;101842.53;5072770;28;20107;-65
2023/05/23 03:28:14;;;;;;;11.90;9.18;;;;;;;14.59;86.42;101840.34;5073905;28;20028;-65
2023/05/23 03:30:40;;;;;;;10.30;9.27;;;;;;;14.56;86.45;101847.69;5072901;28;20012;-65
2023/05/23 03:33:06;;;;;;;12.98;9.80;;;;;;;14.51;86.51;101856.88;5073430;28;20036;-65
2023/05/23 03:35:31;;;;;;;16.13;9.93;;;;;;;14.61;86.63;101849.13;5073865;28;20089;-65
2023/05/23 03:37:57;;;;;;;12.90;9.68;;;;;;;14.44;86.83;101849.28;5073200;28;20029;-65
2023/05/23 03:40:22;;;;;;;11.00;9.23;;;;;;;14.47;86.93;101855.34;5073871;28;20048;-65
2023/05/23 03:43:02;;;;;;;11.18;9.65;;;;;;;14.45;87.61;101851.88;5072167;28;20063;-65
2023/05/23 03:45:29;;;;;;;12.75;9.55;;;;;;;14.31;88.11;101843.88;5072321;28;20103;-65
2023/05/23 03:47:54;;;;;;;10.40;9.25;;;;;;;14.48;87.36;101854.38;5071935;28;20107;-65
2023/05/23 03:50:20;;;;;;;10.48;9.20;;;;;;;14.54;87.04;101855.84;5072360;28;20110;-65
2023/05/23 03:52:45;;;;;;;12.88;11.07;;;;;;;14.56;87.02;101861.06;5072874;28;20391;-65
2023/05/23 03:55:13;;;;;;;14.15;11.35;;;;;;;14.52;86.90;101860.41;5106316;28;20024;-65
2023/05/23 03:57:39;;;;;;;14.02;11.65;;;;;;;14.60;86.53;101851.91;5073693;28;20039;-65
2023/05/23 04:00:11;;;;;;;14.38;11.68;;;;;;;14.52;87.15;101863.09;5105727;28;20399;-65
2023/05/23 04:02:38;;;;;;;17.15;12.35;;;;;;;14.43;87.62;101860.97;5073061;28;20025;-65
2023/05/23 04:05:04;;;;;;;15.93;11.98;;;;;;;14.43;87.59;101863.66;5073204;28;20048;-65
2023/05/23 04:07:33;;;;;;;18.25;11.48;;;;;;;14.39;88.18;101868.34;5072750;28;20451;-65
2023/05/23 04:09:59;;;;;;;13.88;11.18;;;;;;;14.30;88.02;101868.91;5072934;28;20471;-65
2023/05/23 04:12:24;;;;;;;16.08;11.13;;;;;;;14.42;87.55;101873.50;5071698;28;20112;-65
2023/05/23 04:14:52;;;;;;;16.20;11.13;;;;;;;14.50;87.38;101878.34;5073295;28;20025;-65
2023/05/23 04:17:17;;;;;;;15.38;11.05;;;;;;;14.55;87.24;101878.97;5072783;28;20033;-65
2023/05/23 04:19:43;;;;;;;15.90;11.15;;;;;;;14.49;87.01;101872.13;5072987;28;20031;-65
2023/05/23 04:22:09;;;;;;;12.18;10.30;;;;;;;14.45;87.31;101881.34;5071628;28;20056;-65
2023/05/23 04:24:34;;;;;;;13.75;10.82;;;;;;;14.48;87.58;101885.66;5071608;28;20024;-65
2023/05/23 04:27:00;;;;;;;14.43;11.30;;;;;;;14.51;87.60;101882.78;5072522;28;20471;-65
2023/05/23 04:29:26;;;;;;;18.83;12.02;;;;;;;14.53;87.09;101887.09;5071433;28;20410;-65
2023/05/23 04:31:53;;;;;;;16.13;11.73;;;;;;;14.61;87.03;101883.06;5072466;28;20032;-65
2023/05/23 04:34:21;;;;;;;19.38;12.77;;;;;;;14.58;86.74;101881.44;5105238;28;20023;-65
2023/05/23 04:36:47;;;;;;;16.98;11.25;;;;;;;14.59;86.83;101884.97;5072038;28;20032;-65
2023/05/23 04:39:12;;;;;;;19.98;13.40;;;;;;;14.45;87.19;101889.38;5072476;28;20024;-65
2023/05/23 04:41:38;;;;;;;21.70;12.82;;;;;;;14.54;86.98;101887.97;5105135;28;20027;-65
2023/05/23 04:44:04;;;;;;;24.20;13.23;;;;;;;14.49;87.20;101900.72;5071919;28;20048;-65
2023/05/23 04:46:30;;;;;;;23.40;13.95;;;;;;;14.36;87.18;101886.41;5104953;28;20479;-65
2023/05/23 04:48:57;;;;;;;19.15;13.18;;;;;;;14.48;87.23;101896.34;5072534;28;20099;-65
2023/05/23 04:51:23;;;;;;;20.50;13.00;;;;;;;14.38;87.95;101901.41;5072062;28;20029;-65
2023/05/23 04:53:50;;;;;;;20.33;13.77;;;;;;;14.50;87.54;101903.34;5072091;28;20403;-65
2023/05/23 04:56:27;;;;;;;25.90;15.32;;;;;;;14.52;87.17;101909.47;5072217;28;20043;-65
2023/05/23 04:58:55;;;;;;;29.58;16.33;;;;;;;14.31;87.78;101903.59;5104593;28;20391;-65
2023/05/23 05:01:24;;;;;;;32.20;15.55;;;;;;;14.19;88.39;101904.38;5072405;28;20031;-65
2023/05/23 05:03:50;;;;;;;30.52;15.70;;;;;;;14.27;88.14;101918.13;5072195;28;20105;-65
2023/05/23 05:06:17;;;;;;;29.25;16.60;;;;;;;13.98;89.41;101911.88;5072099;28;20040;-65
2023/05/23 05:08:45;;;;;;;30.50;17.20;;;;;;;14.04;89.30;101921.34;5104200;28;20025;-65
2023/05/23 05:11:10;;;;;;;33.60;16.50;;;;;;;14.04;89.53;101916.00;5071931;28;20372;-65
2023/05/23 05:13:36;;;;;;;32.78;16.25;;;;;;;14.06;89.32;101912.28;5071607;28;20031;-65
2023/05/23 05:16:01;;;;;;;25.40;15.07;;;;;;;14.16;88.99;101919.75;5072024;28;20031;-64
2023/05/23 05:18:27;;;;;;;29.33;17.20;;;;;;;14.20;88.58;101922.13;5072012;28;20021;-65
2023/05/23 05:20:53;;;;;;;34.72;16.33;;;;;;;14.15;88.63;101923.34;5104565;28;20126;-65
2023/05/23 05:23:18;;;;;;;32.47;15.82;;;;;;;14.12;88.26;101929.78;5071403;28;20020;-65
2023/05/23 05:25:44;;;;;;;35.00;17.05;;;;;;;14.01;88.47;101946.47;5071973;28;20028;-65
2023/05/23 05:28:10;;;;;;;35.17;16.13;;;;;;;13.94;88.94;101945.13;5071607;28;20029;-65
2023/05/23 05:30:36;;;;;;;33.47;17.50;;;;;;;13.98;88.58;101946.66;5104444;28;20025;-65
2023/05/23 05:33:03;;;;;;;33.50;15.98;;;;;;;14.09;88.03;101949.56;5071583;28;20446;-65
2023/05/23 05:35:31;;;;;;;32.03;17.48;;;;;;;14.12;87.45;101952.97;5071942;28;20025;-65
2023/05/23 05:38:03;;;;;;;30.08;16.10;;;;;;;13.97;87.66;101955.63;5074828;28;20149;-65
2023/05/23 05:40:28;;;;;;;34.65;16.60;;;;;;;13.94;87.06;101960.28;5078385;28;20032;-64
2023/05/23 05:42:54;;;;;;;35.72;15.48;;;;;;;13.91;87.14;101957.78;5077860;28;20047;-64
2023/05/23 05:45:19;;;;;;;33.30;16.35;;;;;;;13.83;87.49;101955.59;5078309;28;20025;-65
2023/05/23 05:47:45;;;;;;;32.58;14.40;;;;;;;13.87;87.21;101962.47;5078242;28;20066;-65
2023/05/23 05:50:11;;;;;;;26.92;13.85;;;;;;;13.98;87.09;101961.84;5111153;28;20042;-65
2023/05/23 05:52:38;;;;;;;30.73;15.63;;;;;;;14.03;86.16;101970.44;5110318;28;20020;-65
2023/05/23 05:55:10;;;;;;;29.92;13.98;;;;;;;14.01;86.95;101969.69;5110728;28;20024;-64
2023/05/23 05:57:39;;;;;;;30.35;13.45;;;;;;;14.03;86.06;101971.31;5078122;28;20024;-65
2023/05/23 06:00:13;;;;;;;;;;;;;;;14.12;85.69;101971.69;5111345;27;20050;-64
2023/05/23 06:02:46;;;;;;;30.30;13.85;;;;;;;13.88;86.68;101980.22;5110761;28;19908;-65
2023/05/23 06:05:12;;;;;;;31.10;13.80;;;;;;;13.91;86.06;101981.88;5078478;28;20099;-65
2023/05/23 06:07:39;;;;;;;32.95;13.70;;;;;;;13.74;86.07;101974.84;5077870;28;20024;-65
2023/05/23 06:10:05;;;;;;;28.92;12.93;;;;;;;13.70;86.25;101984.84;5078107;28;20031;-65
2023/05/23 06:12:30;;;;;;;29.48;12.00;;;;;;;13.53;86.44;101983.16;5109973;28;20024;-64
2023/05/23 06:14:56;;;;;;;25.92;12.35;;;;;;;13.51;85.99;101992.22;5093647;28;20033;-65
2023/05/23 06:17:21;;;;;;;22.95;11.85;;;;;;;13.48;86.42;101992.41;5077996;28;20059;-65
2023/05/23 06:19:47;;;;;;;26.88;11.43;;;;;;;13.47;86.50;101996.00;5110797;28;20032;-65
2023/05/23 06:22:15;;;;;;;25.92;11.73;;;;;;;13.47;86.27;102001.34;5110179;28;20357;-64
2023/05/23 06:24:40;;;;;;;27.33;11.27;;;;;;;13.46;86.56;102004.97;5078191;28;20024;-65
2023/05/23 06:27:05;;;;;;;21.80;11.05;;;;;;;13.23;86.76;101992.88;5077622;28;20027;-65
2023/05/23 06:29:35;;;;;;;25.10;9.80;;;;;;;13.45;86.26;102001.44;5078150;28;20541;-65
2023/05/23 06:32:01;;;;;;;20.45;9.88;;;;;;;13.34;86.12;102003.84;5077631;28;20025;-65
2023/05/23 06:34:26;;;;;;;17.83;9.20;;;;;;;13.36;86.00;102005.50;5078073;28;20021;-65
2023/05/23 06:36:54;;;;;;;23.10;9.93;;;;;;;13.39;85.82;102010.66;5077417;28;20020;-65
2023/05/23 06:39:19;;;;;;;19.80;9.48;;;;;;;13.43;85.33;102008.69;5076489;28;20103;-64
2023/05/23 06:41:46;;;;;;;14.27;8.32;;;;;;;13.37;84.61;102012.56;5076458;28;20112;-65
2023/05/23 06:44:15;;;;;;;17.02;7.97;;;;;;;13.33;85.43;102019.03;5076432;28;20056;-66
2023/05/23 06:46:44;;;;;;;19.17;8.52;;;;;;;13.34;85.02;102023.41;5077681;28;20024;-65
2023/05/23 06:49:09;;;;;;;16.27;8.88;;;;;;;13.30;84.84;102027.22;5073781;28;20499;-64
2023/05/23 06:51:34;;;;;;;17.95;8.82;;;;;;;13.34;84.74;102028.75;5074103;28;20024;-65
2023/05/23 06:54:00;;;;;;;19.58;8.18;;;;;;;13.49;84.03;102035.06;5072995;28;20052;-64
2023/05/23 06:56:25;;;;;;;14.27;8.57;;;;;;;13.44;84.02;102042.47;5073251;28;20081;-65
2023/05/23 06:58:54;;;;;;;15.15;8.45;;;;;;;13.40;84.70;102048.94;5074621;28;20048;-64
2023/05/23 07:01:19;;;;;;;20.83;10.45;;;;;;;13.21;85.09;102054.41;5073311;28;20460;-65
2023/05/23 07:03:45;;;;;;;15.43;8.60;;;;;;;13.13;84.21;102053.97;5106909;28;20078;-64
2023/05/23 07:06:13;;;;;;;18.38;8.38;;;;;;;13.03;83.73;102050.03;5073375;28;20056;-64
2023/05/23 07:08:38;;;;;;;19.52;8.75;;;;;;;13.07;83.84;102062.31;5073832;28;20029;-64
2023/05/23 07:11:05;;;;;;;13.88;8.32;;;;;;;13.13;83.49;102068.19;5089771;28;20031;-65
2023/05/23 07:13:30;;;;;;;18.60;8.82;;;;;;;13.23;83.53;102056.97;5072925;28;20066;-65
2023/05/23 07:15:56;;;;;;;16.05;8.55;;;;;;;13.34;82.48;102059.97;5074185;28;20032;-65
2023/05/23 07:18:22;;;;;;;15.98;7.78;;;;;;;13.46;82.25;102066.44;5072739;28;20168;-64
2023/05/23 07:20:48;;;;;;;14.65;8.45;;;;;;;13.33;80.94;102058.25;5072854;28;20021;-64
2023/05/23 07:23:14;;;;;;;15.25;8.00;;;;;;;13.39;81.54;102058.78;5073556;28;20028;-64
2023/05/23 07:25:43;;;;;;;20.48;9.07;;;;;;;13.44;79.08;102065.66;5072968;28;20511;-65
2023/05/23 07:28:09;;;;;;;19.05;7.90;;;;;;;13.52;76.73;102064.28;5072710;28;20051;-64
2023/05/23 07:30:35;;;;;;;16.92;8.55;;;;;;;13.52;75.19;102069.63;5072887;28;20364;-64
2023/05/23 07:33:00;;;;;;;19.20;8.07;;;;;;;13.54;74.78;102069.56;5073538;28;20028;-65
2023/05/23 07:35:26;;;;;;;18.48;8.20;;;;;;;13.51;73.72;102077.75;5072755;28;20527;-65
2023/05/23 07:37:54;;;;;;;16.25;8.20;;;;;;;13.58;72.63;102081.78;5073066;28;20391;-65
2023/05/23 07:40:24;;;;;;;18.50;8.60;;;;;;;13.66;73.21;102078.69;5072586;28;20028;-65
2023/05/23 07:42:52;;;;;;;16.80;8.13;;;;;;;13.83;70.97;102068.78;5073369;28;20045;-64
2023/05/23 07:45:19;;;;;;;18.75;8.77;;;;;;;13.76;71.32;102078.06;5073609;28;20048;-65
2023/05/23 07:47:51;;;;;;;16.05;8.10;;;;;;;13.82;71.11;102077.75;5073312;28;20017;-65
2023/05/23 07:50:17;;;;;;;17.00;8.60;;;;;;;13.98;71.22;102079.53;5072251;28;20025;-65
2023/05/23 07:52:43;;;;;;;16.75;7.50;;;;;;;14.17;69.75;102080.19;5072756;28;20036;-65
2023/05/23 07:55:08;;;;;;;14.35;8.27;;;;;;;14.23;69.93;102078.97;5072209;28;20025;-65
2023/05/23 07:57:36;;;;;;;14.48;7.47;;;;;;;14.24;70.76;102091.41;5073410;28;20024;-64
2023/05/23 08:00:02;;;;;;;22.75;9.82;;;;;;;14.01;71.18;102096.28;5072889;28;20021;-65
2023/05/23 08:02:27;;;;;;;23.30;10.23;;;;;;;13.86;71.73;102098.00;5073278;28;20023;-65
2023/05/23 08:04:53;;;;;;;19.08;9.40;;;;;;;13.70;71.72;102102.47;5105902;28;20025;-65
2023/05/23 08:07:18;;;;;;;19.25;8.25;;;;;;;13.78;71.93;102094.91;5071111;28;20099;-65
2023/05/23 08:09:44;;;;;;;16.30;9.20;;;;;;;13.85;72.17;102096.28;5073291;28;20028;-65
2023/05/23 08:12:12;;;;;;;14.13;7.68;;;;;;;13.98;71.37;102106.28;5071634;28;20016;-65
2023/05/23 08:14:37;;;;;;;14.45;7.57;;;;;;;14.06;70.96;102102.22;5055540;28;20562;-65
2023/05/23 08:17:03;;;;;;;17.85;8.15;;;;;;;14.21;71.11;102096.94;5071567;28;20052;-65
2023/05/23 08:19:28;;;;;;;21.90;8.38;;;;;;;14.39;70.96;102103.03;5073145;28;20392;-65
2023/05/23 08:21:54;;;;;;;16.70;9.02;;;;;;;14.51;70.35;102108.53;5072295;28;20027;-65
2023/05/23 08:24:20;;;;;;;15.70;9.70;;;;;;;14.40;69.86;102102.06;5071639;28;20025;-65
2023/05/23 08:26:46;;;;;;;15.80;8.40;;;;;;;14.40;69.46;102102.91;5072826;28;20020;-65
2023/05/23 08:29:12;;;;;;;16.15;8.32;;;;;;;14.32;68.66;102106.06;5071535;28;20463;-65
2023/05/23 08:31:37;;;;;;;16.75;8.52;;;;;;;14.44;69.30;102106.28;5054630;28;20077;-65
2023/05/23 08:34:03;;;;;;;22.05;9.55;;;;;;;14.46;69.54;102112.41;5072604;28;20024;-65
2023/05/23 08:36:28;;;;;;;13.05;8.45;;;;;;;14.44;69.73;102103.59;5070684;28;20033;-65
2023/05/23 08:38:54;;;;;;;15.30;8.23;;;;;;;14.27;70.17;102113.50;5072710;28;20017;-65
2023/05/23 08:41:23;;;;;;;14.60;8.05;;;;;;;14.47;70.52;102116.78;5072516;28;20348;-65
2023/05/23 08:43:49;;;;;;;13.73;8.70;;;;;;;14.32;70.39;102110.53;5072356;28;20059;-66
2023/05/23 08:46:15;;;;;;;15.80;7.80;;;;;;;14.29;70.24;102106.25;5072108;28;20060;-64
2023/05/23 08:48:54;;;;;;;21.70;8.48;;;;;;;14.26;71.59;102119.78;5071264;28;20085;-64
2023/05/23 08:51:25;;;;;;;17.77;8.33;;;;;;;14.36;71.36;102114.78;5070796;28;20082;-64
2023/05/23 08:53:52;;;;;;;16.98;8.20;;;;;;;14.47;71.57;102115.00;5070976;28;20024;-65
2023/05/23 08:56:18;;;;;;;15.52;8.25;;;;;;;14.43;72.45;102116.13;5072207;28;20392;-65
2023/05/23 08:58:47;;;;;;;11.98;7.43;;;;;;;14.45;72.61;102127.59;5072222;28;20024;-65
2023/05/23 09:01:13;;;;;;;13.10;7.97;;;;;;;14.58;73.07;102130.44;5070815;28;20032;-65
2023/05/23 09:03:43;;;;;;;17.13;6.97;;;;;;;14.51;72.26;102132.63;5072283;28;20096;-65
2023/05/23 09:06:09;;;;;;;12.88;7.55;;;;;;;14.66;72.28;102124.66;5071935;28;20038;-65
2023/05/23 09:08:36;;;;;;;16.98;6.68;;;;;;;14.62;73.27;102125.75;5070585;28;20032;-65
2023/05/23 09:11:02;;;;;;;16.90;6.75;;;;;;;14.63;72.65;102127.50;5070662;28;20101;-65
2023/05/23 09:13:33;;;;;;;14.02;6.88;;;;;;;14.80;72.76;102146.09;5071143;28;20475;-65
2023/05/23 09:16:04;;;;;;;14.98;6.85;;;;;;;15.05;71.88;102142.78;5072012;28;20028;-65
2023/05/23 09:18:36;;;;;;;11.20;7.10;;;;;;;15.18;70.90;102148.28;5071958;28;20111;-65
2023/05/23 09:21:01;;;;;;;16.58;6.95;;;;;;;15.10;70.66;102146.06;5070463;28;20102;-65
2023/05/23 09:23:35;;;;;;;12.80;6.22;;;;;;;14.88;70.21;102142.94;5070077;28;20060;-65
2023/05/23 09:26:12;;;;;;;14.13;6.35;;;;;;;14.74;71.30;102141.97;5071938;28;20078;-65
2023/05/23 09:28:42;;;;;;;14.80;5.63;;;;;;;14.61;69.70;102145.47;5070721;28;20040;-65
2023/05/23 09:31:09;;;;;;;15.32;6.25;;;;;;;14.61;69.97;102140.97;5053940;28;20070;-65
2023/05/23 09:33:37;;;;;;;18.85;6.57;;;;;;;14.81;69.10;102153.19;5104135;28;20383;-65
2023/05/23 09:36:06;;;;;;;16.27;6.00;;;;;;;14.87;66.96;102149.28;5071564;28;20032;-65
2023/05/23 09:38:36;;;;;;;14.80;5.07;;;;;;;14.88;66.29;102154.56;5071427;28;20086;-65
2023/05/23 09:41:02;;;;;;;15.93;5.35;;;;;;;14.99;65.00;102144.03;5071782;28;20376;-65
2023/05/23 09:43:28;;;;;;;13.40;5.85;;;;;;;14.99;65.14;102148.53;5053655;28;20067;-65
2023/05/23 09:45:54;;;;;;;17.98;5.93;;;;;;;15.01;64.12;102153.81;5071588;28;20029;-65
2023/05/23 09:48:28;;;;;;;15.77;5.35;;;;;;;15.13;64.27;102145.00;5071275;28;20032;-65
2023/05/23 09:50:53;;;;;;;15.18;5.57;;;;;;;15.17;63.71;102165.28;5071734;28;20115;-65
2023/05/23 09:53:21;;;;;;;16.13;5.45;;;;;;;15.19;62.47;102147.31;5071075;28;20551;-65
2023/05/23 09:55:49;;;;;;;11.50;4.97;;;;;;;15.43;62.59;102155.66;5071655;28;20028;-65
2023/05/23 09:58:17;;;;;;;19.73;4.90;;;;;;;15.42;61.50;102143.22;5071584;28;20077;-65
2023/05/23 10:00:48;;;;;;;16.23;5.47;;;;;;;15.56;59.75;102155.72;5071687;28;20123;-65
2023/05/23 10:03:16;;;;;;;15.95;5.53;;;;;;;15.53;60.62;102153.22;5069909;28;20115;-65
2023/05/23 10:05:48;;;;;;;15.70;5.25;;;;;;;15.31;60.28;102159.09;5070553;28;20020;-65
2023/05/23 10:08:28;;;;;;;15.32;4.90;;;;;;;15.36;61.48;102157.00;5069729;28;20020;-65
2023/05/23 10:10:57;;;;;;;19.30;5.40;;;;;;;15.46;62.00;102152.75;5071484;28;20119;-65
2023/05/23 10:13:26;;;;;;;14.02;5.32;;;;;;;15.59;59.74;102158.25;5071105;28;20032;-65
2023/05/23 10:15:58;;;;;;;17.05;5.72;;;;;;;15.82;60.34;102146.91;5071565;28;20039;-65
2023/05/23 10:18:28;;;;;;;10.27;4.95;;;;;;;16.10;59.37;102150.50;5071110;28;20021;-65
2023/05/23 10:21:00;;;;;;;17.15;5.18;;;;;;;16.43;59.36;102152.75;5070104;28;20033;-65
2023/05/23 10:23:26;;;;;;;19.10;5.43;;;;;;;16.79;58.15;102145.88;5070442;28;20012;-64
2023/05/23 10:25:52;;;;;;;11.82;4.70;;;;;;;16.88;57.18;102160.53;5073864;28;20032;-65
2023/05/23 10:28:18;;;;;;;16.63;5.72;;;;;;;17.07;54.89;102157.44;5074985;28;20070;-65
2023/05/23 10:30:44;;;;;;;24.02;5.68;;;;;;;17.18;53.51;102163.78;5075138;28;20028;-65
2023/05/23 10:33:12;;;;;;;16.42;5.40;;;;;;;17.16;54.84;102165.72;5074624;28;20407;-65
2023/05/23 10:35:46;;;;;;;15.40;5.10;;;;;;;17.20;55.45;102155.59;5073867;28;20028;-65
2023/05/23 10:38:50;;;;;;;12.75;4.85;;;;;;;17.35;55.02;102162.56;5074478;28;20476;-65
2023/05/23 10:41:27;;;;;;;12.82;4.95;;;;;;;16.96;55.07;102164.41;5073636;28;20027;-65
2023/05/23 10:44:08;;;;;;;14.43;5.28;;;;;;;17.18;54.31;102171.00;5074689;28;20091;-65
2023/05/23 10:46:50;;;;;;;19.08;5.97;;;;;;;17.07;54.42;102162.81;5074330;28;20024;-65
2023/05/23 10:49:18;;;;;;;16.85;5.03;;;;;;;16.94;53.66;102152.91;5073390;28;20032;-65
2023/05/23 10:51:48;;;;;;;18.25;5.80;;;;;;;17.15;53.73;102165.84;5074064;28;20443;-65
2023/05/23 10:54:14;;;;;;;15.93;5.68;;;;;;;17.43;51.91;102162.91;5073285;28;20025;-65
2023/05/23 10:56:40;;;;;;;16.50;5.28;;;;;;;17.39;50.75;102157.88;5074723;28;20353;-65
2023/05/23 10:59:05;;;;;;;13.43;5.38;;;;;;;17.51;51.91;102150.75;5074495;28;20067;-65
2023/05/23 11:01:31;;;;;;;13.10;4.78;;;;;;;17.75;50.10;102154.34;5074217;28;20024;-65
2023/05/23 11:03:57;;;;;;;15.13;5.13;;;;;;;17.92;50.42;102162.09;5074458;28;20471;-65
2023/05/23 11:06:43;;;;;;;14.10;5.25;;;;;;;18.06;48.08;102158.41;5074177;28;20475;-65
2023/05/23 11:09:18;;;;;;;19.48;5.07;;;;;;;17.91;50.10;102152.31;5074412;28;20028;-65
2023/05/23 11:11:52;;;;;;;15.75;4.93;;;;;;;18.22;48.98;102151.88;5072755;28;20052;-65
2023/05/23 11:14:36;;;;;;;14.93;4.80;;;;;;;18.31;48.57;102152.03;5072811;28;20054;-65
2023/05/23 11:17:11;;;;;;;15.07;4.95;;;;;;;18.50;46.74;102154.22;5073883;28;20029;-65